Time;durP1;ratioP1;P1;durP2;ratioP2;P2;SDS_P1;SDS_P2;PMS_P1;PMS_P2;Temp;Humidity;BMP_temperature;BMP_pressure;BME280_temperature;BME280_humidity;BME280_pressure;Samples;Min_cycle;Max_cycle;Signal;HPM_P1;HPM_P2
2021/04/15 01:17:58;;;;;;;12.55;11.23;;;2.20;93.90;;;;;;5041315;28;20184;-89
2021/04/15 01:20:58;;;;;;;11.23;10.25;;;2.30;94.20;;;;;;5038530;28;20172;-88
2021/04/15 01:23:28;;;;;;;11.73;10.52;;;4.90;78.10;;;;;;5023964;28;20299;-89
2021/04/15 01:26:02;;;;;;;11.63;10.63;;;1.20;80.70;;;;;;5040991;28;20219;-88
2021/04/15 01:28:58;;;;;;;12.07;11.07;;;2.30;90.40;;;;;;5023902;28;20156;-89
2021/04/15 01:31:40;;;;;;;11.55;10.35;;;4.70;75.80;;;;;;5024033;28;20175;-90
2021/04/15 01:34:16;;;;;;;13.85;12.45;;;3.40;77.40;;;;;;5023673;28;20172;-90
2021/04/15 01:44:39;;;;;;;19.13;12.90;;;1.70;74.30;;;;;;5646189;22;20231;-88
2021/04/15 01:47:14;;;;;;;19.30;17.08;;;1.30;77.00;;;;;;5019728;28;20169;-88
2021/04/15 01:49:43;;;;;;;24.25;20.90;;;5.40;81.50;;;;;;5020980;28;20168;-89
2021/04/15 02:03:14;;;;;;;18.00;16.25;;;1.90;75.40;;;;;;5372949;22;20219;-89
2021/04/15 02:05:42;;;;;;;19.15;17.20;;;2.00;72.70;;;;;;5039833;28;20168;-89
2021/04/15 02:08:10;;;;;;;16.83;15.18;;;1.70;92.50;;;;;;5022663;28;20164;-89
2021/04/15 02:10:43;;;;;;;17.88;15.98;;;3.40;84.40;;;;;;5039633;28;20215;-89
2021/04/15 02:13:11;;;;;;;18.42;16.52;;;1.10;74.80;;;;;;5022582;28;20207;-89
2021/04/15 02:15:50;;;;;;;19.55;17.00;;;5.80;81.60;;;;;;5022570;28;20161;-88
2021/04/15 02:18:31;;;;;;;30.38;18.95;;;3.20;79.20;;;;;;5039904;28;20176;-88
2021/04/15 02:21:02;;;;;;;25.50;21.15;;;4.10;77.40;;;;;;5039220;28;20164;-88
2021/04/15 02:23:33;;;;;;;28.55;21.65;;;1.40;74.40;;;;;;5039624;28;20184;-89
2021/04/15 03:05:00;;;;;;;17.38;15.68;;;1.20;73.90;;;;;;6125674;22;20223;-89
2021/04/15 03:07:29;;;;;;;16.27;14.68;;;1.50;94.00;;;;;;5015628;28;20200;-89
2021/04/15 03:09:58;;;;;;;14.85;13.43;;;5.60;83.40;;;;;;5001584;28;20241;-89
2021/04/15 03:12:32;;;;;;;14.90;12.70;;;3.80;79.60;;;;;;5017932;28;20173;-90
2021/04/15 03:15:09;;;;;;;15.90;14.30;;;0.60;76.80;;;;;;5001388;28;20177;-89
2021/04/15 03:17:53;;;;;;;15.80;14.10;;;1.30;74.80;;;;;;5017096;28;20256;-90
2021/04/15 03:24:16;;;;;;;20.13;17.98;;;3.90;77.90;;;;;;5016927;28;20280;-89
2021/04/15 03:27:12;;;;;;;26.58;22.80;;;1.30;74.80;;;;;;5000893;28;20189;-89
2021/04/15 03:30:47;;;;;;;19.80;17.80;;;1.40;73.60;;;;;;5011611;28;20197;-90
2021/04/15 03:33:47;;;;;;;24.98;18.92;;;-1.00;70.70;;;;;;5018117;28;20268;-89
2021/04/15 03:36:27;;;;;;;17.25;15.05;;;1.20;73.90;;;;;;5172146;22;20217;-89
2021/04/15 03:39:01;;;;;;;24.48;18.55;;;3.70;77.50;;;;;;4997779;28;20177;-86
2021/04/15 03:41:31;;;;;;;23.40;17.63;;;5.50;82.80;;;;;;4981764;28;20178;-89
2021/04/15 03:44:12;;;;;;;22.17;18.85;;;0.90;94.90;;;;;;4997692;28;20194;-88
2021/04/15 03:46:43;;;;;;;24.30;19.35;;;1.00;94.30;;;;;;4981154;28;20174;-89
2021/04/15 03:49:42;;;;;;;25.77;19.92;;;1.10;94.70;;;;;;4980344;28;20196;-89
2021/04/15 03:52:24;;;;;;;30.77;21.55;;;2.10;78.00;;;;;;4973173;28;20162;-87
2021/04/15 03:55:08;;;;;;;34.35;25.00;;;1.00;75.40;;;;;;4977237;28;20177;-87
2021/04/15 03:57:34;;;;;;;42.55;22.77;;;;;;;;;;4980598;28;20192;-88
2021/04/15 04:00:11;;;;;;;37.95;23.65;;;0.80;75.70;;;;;;4996838;28;20162;-88
2021/04/15 04:03:15;;;;;;;40.55;26.30;;;2.20;81.80;;;;;;4997838;28;20198;-88
2021/04/15 04:05:46;;;;;;;38.00;23.40;;;5.50;85.30;;;;;;4994232;28;20237;-89
2021/04/15 04:08:20;;;;;;;69.35;26.02;;;3.60;82.60;;;;;;4998264;28;20154;-87
2021/04/15 04:10:50;;;;;;;86.68;26.23;;;1.10;78.40;;;;;;4968917;28;20254;-88
2021/04/15 04:13:32;;;;;;;91.57;23.45;;;3.90;84.60;;;;;;4984276;28;20201;-88
2021/04/15 04:16:38;;;;;;;137.38;25.92;;;1.20;79.50;;;;;;4983336;28;20177;-89
2021/04/15 04:19:35;;;;;;;188.25;27.40;;;2.00;80.40;;;;;;5001324;28;20221;-88
2021/04/15 04:22:21;;;;;;;133.98;29.10;;;2.70;81.60;;;;;;4984288;28;20174;-88
2021/04/15 04:25:02;;;;;;;54.58;22.25;;;0.90;79.40;;;;;;5001493;28;20176;-86
2021/04/15 04:27:36;;;;;;;110.20;25.35;;;1.40;96.20;;;;;;4984598;28;20185;-88
2021/04/15 04:30:40;;;;;;;67.93;22.27;;;1.50;80.10;;;;;;5000088;28;20161;-90
2021/04/15 04:33:38;;;;;;;64.43;22.25;;;4.10;83.00;;;;;;4999710;28;20182;-88
2021/04/15 04:36:15;;;;;;;59.15;21.08;;;2.00;80.10;;;;;;4998579;28;20240;-89
2021/04/15 04:39:09;;;;;;;52.20;22.33;;;3.10;83.00;;;;;;4965685;28;20197;-88
2021/04/15 04:42:31;;;;;;;42.20;19.88;;;4.00;81.60;;;;;;4979802;28;20189;-88
2021/04/15 04:45:23;;;;;;;32.60;19.95;;;1.60;78.20;;;;;;4998687;28;20188;-88
2021/04/15 04:48:40;;;;;;;42.83;20.90;;;2.70;79.30;;;;;;5001013;28;20196;-88
2021/04/15 04:51:33;;;;;;;69.20;22.50;;;1.80;78.10;;;;;;5017461;28;20145;-89
2021/04/15 04:54:27;;;;;;;73.13;24.00;;;1.20;92.90;;;;;;4988004;28;20200;-88
2021/04/15 04:57:33;;;;;;;53.38;19.92;;;3.80;85.20;;;;;;4978118;28;20165;-88
2021/04/15 05:00:24;;;;;;;36.20;20.88;;;3.90;82.20;;;;;;5002706;28;20165;-89
2021/04/15 05:02:57;;;;;;;48.25;23.25;;;3.50;81.10;;;;;;5000331;28;20216;-88
2021/04/15 05:05:35;;;;;;;77.22;23.35;;;1.40;78.30;;;;;;4983318;28;20195;-87
2021/04/15 05:08:11;;;;;;;72.05;22.38;;;0.70;78.00;;;;;;4999523;28;20188;-88
2021/04/15 05:10:50;;;;;;;59.60;23.08;;;1.40;79.00;;;;;;4999517;28;20168;-88
2021/04/15 05:13:27;;;;;;;58.25;20.33;;;0.70;81.40;;;;;;5001762;28;20189;-88
2021/04/15 05:16:00;;;;;;;58.72;21.42;;;3.90;82.20;;;;;;5016793;28;20166;-88
2021/04/15 05:18:47;;;;;;;52.50;18.98;;;3.80;85.10;;;;;;5001219;28;20249;-88
2021/04/15 05:21:42;;;;;;;46.60;18.85;;;0.40;83.50;;;;;;5001577;28;20184;-87
2021/04/15 05:24:48;;;;;;;50.17;20.70;;;1.30;95.60;;;;;;5017501;28;20248;-87
2021/04/15 05:27:17;;;;;;;49.72;19.98;;;1.40;78.00;;;;;;5242043;22;20251;-87
2021/04/15 05:29:44;;;;;;;27.15;19.58;;;1.50;78.10;;;;;;4995988;28;20197;-87
2021/04/15 05:32:18;;;;;;;51.92;19.63;;;3.70;86.50;;;;;;5013341;28;20697;-86
2021/04/15 05:34:51;;;;;;;32.78;19.00;;;4.50;84.80;;;;;;4995272;28;20176;-88
2021/04/15 05:37:22;;;;;;;32.05;20.92;;;1.70;78.00;;;;;;5010845;28;20192;-85
2021/04/15 05:39:48;;;;;;;48.10;20.30;;;4.30;85.50;;;;;;5010692;28;20171;-87
2021/04/15 05:42:33;;;;;;;35.05;19.20;;;1.60;79.70;;;;;;5012076;28;20173;-88
2021/04/15 05:45:25;;;;;;;24.05;19.77;;;4.30;82.70;;;;;;4994725;28;20173;-89
2021/04/15 05:48:05;;;;;;;29.63;18.42;;;2.50;77.50;;;;;;4995517;28;20222;-89
2021/04/15 05:50:41;;;;;;;28.27;16.00;;;2.60;75.50;;;;;;5005269;28;20180;-87
2021/04/15 05:53:36;;;;;;;19.17;14.27;;;2.90;76.60;;;;;;4987603;28;20185;-87
2021/04/15 05:56:08;;;;;;;40.40;15.38;;;2.70;74.50;;;;;;5007880;28;20248;-87
2021/04/15 05:58:53;;;;;;;41.15;16.02;;;2.50;73.30;;;;;;4991511;28;20169;-89
2021/04/15 06:01:36;;;;;;;51.35;19.15;;;2.40;72.60;;;;;;5011696;28;20168;-89
2021/04/15 06:04:14;;;;;;;41.50;19.67;;;2.50;73.30;;;;;;5007688;28;20200;-89
2021/04/15 06:06:41;;;;;;;42.13;20.65;;;2.10;73.50;;;;;;4990285;28;20177;-86
2021/04/15 06:09:09;;;;;;;51.85;21.52;;;2.10;72.90;;;;;;4988235;28;20182;-90
2021/04/15 06:11:40;;;;;;;38.88;21.33;;;1.90;73.60;;;;;;4990502;28;20327;-87
2021/04/15 06:14:34;;;;;;;33.17;20.95;;;2.20;75.40;;;;;;4990287;28;20177;-87
2021/04/15 06:17:11;;;;;;;27.02;22.77;;;2.40;75.20;;;;;;5005569;28;20169;-88
2021/04/15 06:19:46;;;;;;;29.45;19.85;;;2.50;75.50;;;;;;4989691;28;20233;-90
2021/04/15 06:22:25;;;;;;;41.95;20.70;;;2.50;75.30;;;;;;4989223;28;20172;-89
2021/04/15 06:24:59;;;;;;;48.97;19.70;;;3.50;78.40;;;;;;4988240;28;20197;-89
2021/04/15 06:27:26;;;;;;;26.77;17.83;;;3.10;74.70;;;;;;4988098;28;20292;-89
2021/04/15 06:30:19;;;;;;;24.73;18.65;;;4.80;84.30;;;;;;4989518;28;20629;-89
2021/04/15 06:32:57;;;;;;;24.75;18.35;;;3.50;78.00;;;;;;4989844;28;20204;-89
2021/04/15 06:35:29;;;;;;;20.42;18.30;;;3.70;73.40;;;;;;4988920;28;20232;-89
2021/04/15 06:38:08;;;;;;;33.33;16.98;;;4.00;74.20;;;;;;4986376;28;20173;-88
2021/04/15 06:40:52;;;;;;;18.97;15.07;;;4.90;72.30;;;;;;4654163;28;10000123;-89
2021/04/15 06:43:29;;;;;;;15.95;14.35;;;4.30;73.70;;;;;;4982167;28;20480;-87
2021/04/15 06:46:09;;;;;;;16.52;14.82;;;6.50;66.40;;;;;;4997091;28;20181;-86
2021/04/15 06:48:59;;;;;;;17.65;15.90;;;6.80;66.20;;;;;;5015524;28;20172;-89
2021/04/15 06:51:36;;;;;;;15.05;13.60;;;7.60;60.00;;;;;;5028938;28;20184;-89
2021/04/15 06:54:29;;;;;;;16.50;14.27;;;5.40;57.10;;;;;;5008224;28;20190;-89
2021/04/15 06:57:24;;;;;;;15.05;13.68;;;7.30;56.50;;;;;;5008231;28;20419;-90
2021/04/15 06:59:57;;;;;;;15.20;13.80;;;9.30;54.80;;;;;;4994476;28;20189;-90
2021/04/15 07:02:59;;;;;;;12.90;11.90;;;9.50;54.00;;;;;;4981854;28;20444;-89
2021/04/15 07:05:31;;;;;;;13.50;10.00;;;10.30;52.60;;;;;;4984228;28;20452;-89
2021/04/15 07:08:05;;;;;;;12.73;11.53;;;10.90;49.50;;;;;;4987516;28;20412;-88
2021/04/15 07:10:43;;;;;;;11.00;9.70;;;10.60;47.70;;;;;;4987832;28;20523;-89
2021/04/15 07:13:46;;;;;;;18.67;10.60;;;10.80;47.80;;;;;;4988921;28;21015;-89
2021/04/15 07:16:30;;;;;;;14.50;9.97;;;10.40;48.20;;;;;;4987821;28;20423;-90
2021/04/15 07:19:26;;;;;;;10.33;9.33;;;10.60;47.90;;;;;;4967276;28;20425;-91
2021/04/15 07:22:10;;;;;;;15.10;10.60;;;11.80;47.90;;;;;;4984674;28;20440;-88
2021/04/15 07:25:06;;;;;;;11.33;10.20;;;12.70;46.40;;;;;;4978523;28;20560;-90
2021/04/15 07:28:09;;;;;;;17.67;11.17;;;12.50;46.10;;;;;;4986022;28;20487;-91
2021/04/15 07:30:48;;;;;;;21.03;10.87;;;12.90;45.60;;;;;;4988590;28;20908;-89
2021/04/15 07:33:43;;;;;;;12.40;11.40;;;12.60;44.70;;;;;;4984365;28;20485;-89
2021/04/15 07:36:35;;;;;;;14.23;10.83;;;13.40;43.30;;;;;;4982988;28;20769;-88
2021/04/15 07:39:28;;;;;;;20.00;13.43;;;13.60;42.40;;;;;;4968031;28;20498;-91
2021/04/15 07:42:44;;;;;;;20.88;11.48;;;13.20;42.00;;;;;;4895876;28;10001191;-89
2021/04/15 07:45:31;;;;;;;12.47;10.17;;;13.10;42.60;;;;;;4968981;28;20411;-87
2021/04/15 07:48:30;;;;;;;15.30;11.10;;;13.10;42.90;;;;;;4976010;28;20432;-90
2021/04/15 07:51:38;;;;;;;10.47;9.50;;;13.80;42.70;;;;;;4966540;28;20929;-89
2021/04/15 07:54:23;;;;;;;14.70;9.20;;;14.40;40.60;;;;;;4983559;28;20439;-89
2021/04/15 07:56:52;;;;;;;9.23;8.20;;;14.40;40.20;;;;;;4995374;28;20449;-90
2021/04/15 07:59:42;;;;;;;11.67;9.43;;;15.90;41.50;;;;;;4976698;28;20429;-87
2021/04/15 08:02:27;;;;;;;9.80;8.80;;;14.00;40.30;;;;;;4990792;28;20420;-91
2021/04/15 08:05:30;;;;;;;10.37;9.40;;;13.30;39.50;;;;;;4989936;28;20490;-91
2021/04/15 08:08:17;;;;;;;18.03;9.57;;;14.50;40.10;;;;;;5008420;28;20415;-91
2021/04/15 08:11:21;;;;;;;9.27;8.37;;;14.90;39.10;;;;;;5009449;28;20486;-90
2021/04/15 08:14:18;;;;;;;9.50;8.10;;;15.50;35.60;;;;;;5008458;28;20415;-91
2021/04/15 08:17:03;;;;;;;11.13;9.00;;;15.50;35.60;;;;;;5004328;28;20432;-90
2021/04/15 08:19:50;;;;;;;9.80;8.40;;;16.40;34.30;;;;;;4989296;28;20436;-90
2021/04/15 08:25:59;;;;;;;8.17;6.20;;;15.20;33.50;;;;;;5007192;28;20432;-89
2021/04/15 08:29:09;;;;;;;6.87;6.33;;;14.80;33.20;;;;;;4987934;28;20579;-87
2021/04/15 08:31:53;;;;;;;6.07;5.50;;;14.10;33.80;;;;;;4990240;28;20487;-90
2021/04/15 08:34:49;;;;;;;5.80;5.27;;;14.00;34.10;;;;;;4986656;28;20440;-88
2021/04/15 08:37:33;;;;;;;13.77;6.27;;;13.40;34.20;;;;;;4987843;28;20443;-90
2021/04/15 08:40:18;;;;;;;7.67;4.43;;;12.90;36.30;;;;;;4985930;28;20414;-90
2021/04/15 08:43:22;;;;;;;9.70;7.10;;;12.50;35.50;;;;;;4994826;28;20607;-90
2021/04/15 08:46:15;;;;;;;6.67;6.10;;;13.20;37.50;;;;;;4966133;28;20433;-91
2021/04/15 08:48:50;;;;;;;6.00;5.50;;;11.40;38.00;;;;;;4968164;28;20417;-89
2021/04/15 08:51:52;;;;;;;9.73;6.20;;;11.00;38.90;;;;;;4971897;28;20421;-88
2021/04/15 08:54:55;;;;;;;8.73;7.00;;;10.40;40.00;;;;;;4955526;28;20465;-89
2021/04/15 08:57:40;;;;;;;5.90;5.50;;;10.00;42.10;;;;;;4985488;28;20441;-89
2021/04/15 09:00:16;;;;;;;11.67;5.17;;;10.20;41.40;;;;;;4988330;28;20408;-92
2021/04/15 09:03:09;;;;;;;5.03;4.47;;;11.90;37.40;;;;;;5002268;28;20561;-91
2021/04/15 09:06:13;;;;;;;17.87;5.93;;;13.60;35.40;;;;;;5003049;28;20436;-90
2021/04/15 09:09:17;;;;;;;17.73;4.90;;;14.40;33.50;;;;;;5011079;28;20877;-90
2021/04/15 09:12:37;;;;;;;10.97;4.53;;;15.10;32.90;;;;;;5008733;28;20847;-90
2021/04/15 09:15:42;;;;;;;4.70;4.50;;;15.70;31.20;;;;;;4930952;29;20399;-89
2021/04/15 09:18:20;;;;;;;8.43;4.40;;;15.40;30.50;;;;;;4945903;29;20423;-89
2021/04/15 09:21:34;;;;;;;4.37;3.97;;;14.80;31.80;;;;;;4933291;29;20419;-89
2021/04/15 09:24:12;;;;;;;6.13;5.50;;;14.60;30.00;;;;;;5015927;28;20458;-90
2021/04/15 09:27:15;;;;;;;4.83;4.50;;;15.00;33.40;;;;;;5010378;28;21014;-88
2021/04/15 09:30:19;;;;;;;5.17;4.60;;;17.10;31.40;;;;;;5023583;28;20427;-86
2021/04/15 09:33:16;;;;;;;11.70;4.27;;;15.90;29.60;;;;;;5003846;28;21163;-88
2021/04/15 09:36:26;;;;;;;3.17;2.93;;;16.80;28.50;;;;;;5005393;28;20445;-91
2021/04/15 09:39:19;;;;;;;8.17;4.00;;;14.90;28.50;;;;;;4990821;22;20512;-89
2021/04/15 09:42:12;;;;;;;3.97;3.10;;;14.80;29.70;;;;;;4988872;28;20484;-89
2021/04/15 09:44:52;;;;;;;5.63;2.53;;;15.50;29.70;;;;;;4987647;28;20491;-89
2021/04/15 09:47:34;;;;;;;5.40;2.40;;;16.00;28.00;;;;;;4989654;28;20416;-92
2021/04/15 09:50:47;;;;;;;6.03;4.27;;;16.10;28.70;;;;;;4990830;28;20508;-88
2021/04/15 09:53:40;;;;;;;7.93;3.50;;;18.40;28.40;;;;;;4982149;28;20504;-91
2021/04/15 09:56:39;;;;;;;91.60;62.50;;;18.80;27.50;;;;;;4987565;28;20432;-90
2021/04/15 09:59:17;;;;;;;4.03;3.73;;;19.70;27.20;;;;;;4998558;28;20492;-91
2021/04/15 10:01:55;;;;;;;8.97;8.10;;;18.60;26.70;;;;;;5008002;28;20491;-89
2021/04/15 10:04:26;;;;;;;3.53;3.27;;;18.60;27.50;;;;;;5003865;28;20472;-90
2021/04/15 10:07:00;;;;;;;3.20;3.00;;;19.60;27.30;;;;;;5007269;28;20446;-90
2021/04/15 10:09:47;;;;;;;7.63;6.47;;;20.70;26.90;;;;;;5007919;28;20488;-88
2021/04/15 10:12:37;;;;;;;3.03;2.83;;;19.30;26.40;;;;;;5006419;28;20412;-91
2021/04/15 10:15:37;;;;;;;9.60;3.77;;;19.10;25.30;;;;;;5005486;28;20440;-93
2021/04/15 10:18:34;;;;;;;2.67;2.20;;;19.60;25.70;;;;;;5006749;28;20492;-93
2021/04/15 10:21:45;;;;;;;3.13;2.43;;;20.20;25.50;;;;;;4994635;28;20515;-90
2021/04/15 10:24:32;;;;;;;3.30;2.23;;;20.90;25.20;;;;;;5012318;28;20456;-88
2021/04/15 10:27:20;;;;;;;2.37;2.27;;;20.30;24.70;;;;;;5008207;28;20412;-92
2021/04/15 10:29:55;;;;;;;2.37;2.27;;;20.30;25.20;;;;;;5006831;28;20416;-88
2021/04/15 10:32:40;;;;;;;2.57;2.37;;;20.50;24.60;;;;;;5009897;28;20412;-90
2021/04/15 10:35:21;;;;;;;3.00;2.80;;;20.10;24.50;;;;;;5008455;28;20416;-89
2021/04/15 10:38:15;;;;;;;3.37;3.07;;;20.50;24.60;;;;;;5004999;28;20448;-90
2021/04/15 10:40:59;;;;;;;2.93;2.60;;;21.20;24.70;;;;;;5006517;28;20919;-87
2021/04/15 10:43:27;;;;;;;2.87;2.67;;;21.40;25.00;;;;;;5002442;28;20967;-89
2021/04/15 10:46:22;;;;;;;2.60;2.40;;;22.30;24.70;;;;;;4995185;28;20425;-89
2021/04/15 10:49:14;;;;;;;2.77;2.53;;;22.60;24.50;;;;;;4995781;28;20407;-90
2021/04/15 10:51:51;;;;;;;3.00;2.80;;;23.40;24.20;;;;;;5007727;28;20419;-90
2021/04/15 10:54:22;;;;;;;9.77;8.77;;;23.80;24.50;;;;;;5013279;28;20495;-85
2021/04/15 10:57:28;;;;;;;4.70;4.30;;;22.70;23.80;;;;;;5014557;28;20434;-87
2021/04/15 10:59:54;;;;;;;3.70;3.20;;;21.00;24.30;;;;;;4996312;28;20571;-88
2021/04/15 11:02:36;;;;;;;3.50;3.30;;;17.50;24.20;;;;;;4993342;28;20914;-91
2021/04/15 11:11:12;;;;;;;4.10;3.80;;;17.40;25.60;;;;;;5109073;27;20483;-89
2021/04/15 11:13:39;;;;;;;4.67;4.23;;;16.70;26.30;;;;;;5072546;28;20466;-90
2021/04/15 11:16:20;;;;;;;4.40;4.10;;;15.70;26.60;;;;;;5072974;28;20413;-89
2021/04/15 11:18:46;;;;;;;13.50;7.37;;;15.20;26.70;;;;;;5070569;28;20408;-89
2021/04/15 11:21:11;;;;;;;26.57;10.37;;;15.60;26.90;;;;;;5075912;28;20436;-90
2021/04/15 11:23:38;;;;;;;6.50;5.60;;;15.50;27.20;;;;;;5072713;28;20409;-87
2021/04/15 11:26:41;;;;;;;5.83;5.10;;;14.90;27.10;;;;;;5072639;28;20174;-88
2021/04/15 11:29:24;;;;;;;5.17;4.90;;;14.10;27.80;;;;;;5073154;28;20492;-86
2021/04/15 11:31:50;;;;;;;4.03;3.70;;;14.40;28.10;;;;;;5067357;28;20425;-85
2021/04/15 11:34:25;;;;;;;3.60;3.50;;;15.20;27.80;;;;;;5074379;28;20556;-87
2021/04/15 11:36:57;;;;;;;4.00;3.90;;;17.00;27.10;;;;;;5051381;28;20406;-87
2021/04/15 11:39:25;;;;;;;13.30;8.30;;;16.60;27.00;;;;;;5068727;28;20417;-88
2021/04/15 11:42:12;;;;;;;5.07;4.87;;;16.60;26.70;;;;;;5071431;28;20405;-87
2021/04/15 11:44:55;;;;;;;5.27;4.83;;;16.50;26.90;;;;;;5070596;28;20420;-87
2021/04/15 11:47:25;;;;;;;6.40;6.00;;;16.30;26.60;;;;;;5071095;28;20401;-86
2021/04/15 11:49:53;;;;;;;5.20;4.80;;;15.70;27.10;;;;;;5068763;28;20448;-89
2021/04/15 11:52:31;;;;;;;5.90;5.47;;;15.70;26.80;;;;;;5069330;28;20408;-86
2021/04/15 11:54:57;;;;;;;8.23;5.83;;;15.30;27.00;;;;;;5071596;28;20465;-89
2021/04/15 11:57:33;;;;;;;4.90;4.60;;;16.00;27.60;;;;;;5071820;28;20516;-89
2021/04/15 12:00:04;;;;;;;5.67;5.17;;;14.90;27.50;;;;;;5071562;28;20280;-86
2021/04/15 12:02:46;;;;;;;4.87;4.57;;;14.50;28.10;;;;;;5071380;28;20405;-89
2021/04/15 12:05:19;;;;;;;4.80;4.50;;;14.30;28.30;;;;;;5071171;28;20424;-89
2021/04/15 12:08:03;;;;;;;5.07;4.60;;;14.30;28.10;;;;;;5083068;28;20404;-91
2021/04/15 12:10:32;;;;;;;5.00;4.70;;;14.90;28.30;;;;;;5081740;28;20488;-93
2021/04/15 12:13:06;;;;;;;3.83;3.73;;;15.40;28.50;;;;;;5081733;28;20897;-92
2021/04/15 12:15:36;;;;;;;4.50;4.40;;;15.70;27.50;;;;;;5080443;28;20413;-92
2021/04/15 12:18:25;;;;;;;6.27;4.67;;;15.90;27.30;;;;;;5089535;28;20435;-87
2021/04/15 12:21:14;;;;;;;4.57;4.47;;;16.10;27.50;;;;;;5094185;28;20421;-87
2021/04/15 12:23:45;;;;;;;7.00;5.80;;;16.30;28.00;;;;;;5083594;28;20497;-93
2021/04/15 12:26:26;;;;;;;4.53;4.27;;;17.70;27.30;;;;;;5091807;28;20425;-91
2021/04/15 12:29:18;;;;;;;5.30;5.00;;;20.70;26.90;;;;;;5084217;28;20448;-89
2021/04/15 12:32:08;;;;;;;5.20;5.00;;;18.60;25.20;;;;;;5085326;28;20578;-91
2021/04/15 12:34:59;;;;;;;5.43;5.17;;;20.90;26.70;;;;;;5085661;28;20459;-90
2021/04/15 12:37:36;;;;;;;4.60;4.40;;;19.90;25.20;;;;;;5089770;28;20788;-94
2021/04/15 12:40:02;;;;;;;5.33;4.90;;;20.70;25.10;;;;;;5089139;28;20401;-93
2021/04/15 12:42:32;;;;;;;6.23;5.90;;;21.40;25.60;;;;;;5088208;28;20420;-93
2021/04/15 12:45:03;;;;;;;5.87;5.60;;;20.00;24.80;;;;;;5089057;28;20194;-89
2021/04/15 12:47:43;;;;;;;6.73;6.30;;;21.10;26.40;;;;;;5089225;28;20527;-87
2021/04/15 12:50:32;;;;;;;7.03;6.53;;;18.10;27.10;;;;;;5091169;28;20468;-90
2021/04/15 12:53:03;;;;;;;8.67;7.80;;;16.30;27.10;;;;;;5093623;28;20480;-91
2021/04/15 12:55:29;;;;;;;7.73;7.10;;;15.10;28.30;;;;;;5091608;28;20415;-91
2021/04/15 12:57:56;;;;;;;6.83;6.20;;;14.20;29.00;;;;;;5088351;28;20420;-91
2021/04/15 13:00:33;;;;;;;7.57;6.97;;;16.30;29.50;;;;;;5086691;28;20424;-91
2021/04/15 13:03:20;;;;;;;6.43;6.10;;;14.90;28.70;;;;;;5079616;28;20413;-92
2021/04/15 13:05:49;;;;;;;6.53;6.23;;;15.10;28.10;;;;;;5052635;28;20441;-92
2021/04/15 13:08:54;;;;;;;16.17;11.50;;;14.00;29.00;;;;;;5069154;28;20418;-88
2021/04/15 13:11:34;;;;;;;9.30;8.70;;;13.70;27.70;;;;;;5067063;28;20434;-90
2021/04/15 13:14:06;;;;;;;6.93;6.50;;;14.50;28.90;;;;;;5065059;28;20424;-90
2021/04/15 13:16:32;;;;;;;6.23;6.00;;;16.30;29.60;;;;;;5063367;28;20445;-92
2021/04/15 13:19:02;;;;;;;7.07;6.67;;;16.20;29.90;;;;;;5068726;28;20432;-90
2021/04/15 13:21:34;;;;;;;7.27;6.90;;;16.70;29.40;;;;;;5070054;28;20163;-90
2021/04/15 13:24:40;;;;;;;7.57;7.10;;;16.90;29.40;;;;;;5072646;28;20410;-91
2021/04/15 13:27:37;;;;;;;7.13;6.63;;;15.50;27.70;;;;;;5070851;28;20439;-92
2021/04/15 13:30:35;;;;;;;8.50;7.82;;;16.20;28.10;;;;;;4726396;28;9999940;-90
2021/04/15 13:33:35;;;;;;;7.50;7.07;;;14.60;27.70;;;;;;5046817;28;20667;-93
2021/04/15 13:36:11;;;;;;;6.73;6.20;;;15.30;27.90;;;;;;5085018;28;20539;-92
2021/04/15 13:39:12;;;;;;;6.90;6.60;;;17.90;28.60;;;;;;5086952;28;20409;-90
2021/04/15 13:41:52;;;;;;;8.90;8.20;;;17.30;27.60;;;;;;5088739;28;20421;-90
2021/04/15 13:44:48;;;;;;;7.53;7.23;;;16.90;27.30;;;;;;5086784;28;20419;-91
2021/04/15 13:47:42;;;;;;;9.87;7.80;;;16.00;27.50;;;;;;5088661;28;20421;-89
2021/04/15 13:50:08;;;;;;;9.37;8.47;;;15.40;27.00;;;;;;5082718;28;20484;-89
2021/04/15 13:52:36;;;;;;;7.97;7.47;;;14.20;27.20;;;;;;5075712;28;20429;-89
2021/04/15 13:55:29;;;;;;;7.90;7.33;;;15.00;27.70;;;;;;5076959;28;20278;-88
2021/04/15 13:57:56;;;;;;;10.27;9.37;;;14.20;28.30;;;;;;5077620;28;20413;-91
2021/04/15 14:00:42;;;;;;;16.40;13.87;;;13.90;28.60;;;;;;5072383;28;20494;-89
2021/04/15 14:03:42;;;;;;;8.73;8.23;;;13.70;29.30;;;;;;5075327;28;20425;-92
2021/04/15 14:06:24;;;;;;;6.53;6.00;;;13.40;28.60;;;;;;5083274;28;20500;-92
2021/04/15 14:09:14;;;;;;;6.97;6.40;;;13.90;29.00;;;;;;5091783;28;20480;-91
2021/04/15 14:12:24;;;;;;;6.57;6.20;;;14.90;28.20;;;;;;5090616;28;20408;-90
2021/04/15 14:14:56;;;;;;;7.43;6.70;;;16.50;27.10;;;;;;5091631;28;20415;-90
2021/04/15 14:17:36;;;;;;;5.80;5.30;;;15.80;26.30;;;;;;5089314;28;20443;-87
2021/04/15 14:20:32;;;;;;;7.17;6.57;;;15.00;27.30;;;;;;5090969;28;20396;-88
2021/04/15 14:22:58;;;;;;;6.03;5.70;;;14.80;25.70;;;;;;5091547;28;20417;-91
2021/04/15 14:25:48;;;;;;;6.73;6.23;;;14.40;26.60;;;;;;5091259;28;20409;-91
2021/04/15 14:28:21;;;;;;;6.30;5.80;;;14.60;27.00;;;;;;5087634;28;20927;-91
2021/04/15 14:30:48;;;;;;;5.70;5.30;;;14.30;26.80;;;;;;5087209;28;20464;-89
2021/04/15 14:33:35;;;;;;;5.63;4.97;;;14.00;26.90;;;;;;5088591;28;20405;-93
2021/04/15 14:36:32;;;;;;;5.93;5.60;;;15.50;28.20;;;;;;5074768;28;20429;-93
2021/04/15 14:39:17;;;;;;;8.37;5.10;;;15.20;26.20;;;;;;5066574;28;20417;-93
2021/04/15 14:41:53;;;;;;;5.13;4.93;;;15.30;26.20;;;;;;5064352;28;20899;-90
2021/04/15 14:44:21;;;;;;;4.73;4.50;;;15.40;26.00;;;;;;5063641;28;20414;-93
2021/04/15 14:46:49;;;;;;;6.70;6.40;;;16.20;26.30;;;;;;5063685;28;20432;-93
2021/04/15 14:49:31;;;;;;;5.90;5.40;;;18.20;25.90;;;;;;4795134;23;10001608;-92
2021/04/15 14:52:22;;;;;;;6.30;5.80;;;19.40;26.30;;;;;;5048766;28;20172;-92
2021/04/15 14:54:54;;;;;;;6.20;6.00;;;17.50;25.50;;;;;;5050146;28;20421;-89
2021/04/15 14:57:22;;;;;;;6.40;6.20;;;19.20;25.70;;;;;;5048097;28;20502;-92
2021/04/15 14:59:57;;;;;;;9.07;8.17;;;20.00;26.60;;;;;;5046511;28;20409;-92
2021/04/15 15:02:28;;;;;;;5.30;5.10;;;17.30;25.00;;;;;;5041221;28;20407;-93
2021/04/15 15:05:18;;;;;;;6.60;6.20;;;16.20;24.80;;;;;;5043104;28;20426;-95
2021/04/15 15:07:45;;;;;;;7.37;6.67;;;16.90;25.40;;;;;;5045148;28;20488;-94
2021/04/15 15:10:15;;;;;;;6.77;6.30;;;19.20;27.50;;;;;;5041419;28;20478;-94
2021/04/15 15:12:41;;;;;;;6.17;5.80;;;15.90;26.10;;;;;;5039022;28;20411;-93
2021/04/15 15:15:16;;;;;;;6.80;6.10;;;17.80;26.90;;;;;;5043595;28;20429;-92
2021/04/15 15:17:45;;;;;;;5.67;5.17;;;15.90;26.90;;;;;;5038351;28;20417;-90
2021/04/15 15:20:35;;;;;;;4.67;4.47;;;17.20;27.80;;;;;;5045572;28;20420;-89
2021/04/15 15:23:16;;;;;;;5.53;5.07;;;15.50;26.20;;;;;;5045914;28;20440;-90
2021/04/15 15:25:57;;;;;;;3.77;3.57;;;14.10;27.00;;;;;;5047876;28;20439;-92
2021/04/15 15:29:00;;;;;;;5.57;5.20;;;14.70;26.70;;;;;;5058571;28;20963;-91
2021/04/15 15:31:38;;;;;;;4.37;4.00;;;13.40;26.30;;;;;;5054229;28;20487;-90
2021/04/15 15:34:40;;;;;;;3.63;3.43;;;14.10;27.30;;;;;;5053975;28;20425;-86
2021/04/15 15:37:38;;;;;;;4.13;3.60;;;13.10;27.10;;;;;;5276377;23;20481;-89
2021/04/15 15:40:22;;;;;;;3.80;3.60;;;13.20;27.50;;;;;;5056979;28;20445;-91
2021/04/15 15:43:27;;;;;;;4.47;4.27;;;12.80;30.20;;;;;;5360343;23;23459;-91
2021/04/15 15:46:38;;;;;;;5.50;5.10;;;12.10;27.60;;;;;;5066577;28;20432;-89
2021/04/15 15:49:36;;;;;;;7.00;3.37;;;12.90;27.60;;;;;;5070413;28;20469;-92
2021/04/15 15:52:12;;;;;;;3.03;2.92;;;12.40;27.90;;;;;;5051752;28;20409;-91
2021/04/15 15:54:42;;;;;;;4.67;3.00;;;12.50;27.50;;;;;;5072318;28;20175;-91
2021/04/15 16:04:05;;;;;;;4.50;4.10;;;11.80;27.70;;;;;;5073339;28;20404;-92
2021/04/15 16:06:42;;;;;;;3.95;3.70;;;12.60;28.00;;;;;;5076497;28;20417;-90
2021/04/15 16:09:18;;;;;;;5.27;4.73;;;12.30;29.10;;;;;;5072842;28;20207;-92
2021/04/15 16:14:47;;;;;;;3.70;3.60;;;13.00;28.00;;;;;;5124646;23;20568;-93
2021/04/15 16:17:15;;;;;;;3.70;3.50;;;12.90;28.10;;;;;;5285055;23;20545;-91
2021/04/15 16:19:55;;;;;;;125.57;63.90;;;11.50;27.50;;;;;;5074252;28;20428;-91
2021/04/15 16:23:22;;;;;;;6.47;5.90;;;12.70;28.00;;;;;;5057411;28;20421;-94
2021/04/15 16:26:14;;;;;;;4.17;3.73;;;13.40;27.50;;;;;;5059159;28;20414;-87
2021/04/15 16:28:49;;;;;;;4.13;3.97;;;13.40;27.20;;;;;;5074378;28;20402;-91
2021/04/15 16:32:06;;;;;;;4.23;4.03;;;12.90;28.80;;;;;;5073860;28;20434;-90
2021/04/15 16:34:41;;;;;;;4.23;3.83;;;12.90;27.60;;;;;;5075751;28;20532;-93
2021/04/15 16:37:39;;;;;;;3.07;2.97;;;12.80;27.20;;;;;;5068866;28;20433;-92
2021/04/15 16:40:30;;;;;;;3.40;3.20;;;13.50;28.30;;;;;;5188359;23;20548;-91
2021/04/15 16:43:05;;;;;;;5.30;4.90;;;11.80;28.20;;;;;;5076775;28;20424;-90